createdAt,value
2022-09-11T00:02:22.879Z,0
2022-09-11T00:04:49.000Z,0
2022-09-11T00:07:15.124Z,0
2022-09-11T00:09:41.168Z,0
2022-09-11T00:12:07.263Z,0
2022-09-11T00:14:33.359Z,0
2022-09-11T00:16:59.459Z,0
2022-09-11T00:19:25.565Z,0
2022-09-11T00:21:51.634Z,0
2022-09-11T00:24:17.738Z,0
2022-09-11T00:26:43.855Z,0
2022-09-11T00:29:09.932Z,0
2022-09-11T00:31:36.092Z,0
2022-09-11T00:34:01.127Z,0
2022-09-11T00:36:27.238Z,0
2022-09-11T00:38:53.333Z,0
2022-09-11T00:41:19.432Z,0
2022-09-11T00:43:45.505Z,0
2022-09-11T00:46:11.607Z,0
2022-09-11T00:48:37.708Z,0
2022-09-11T00:51:03.787Z,0
2022-09-11T00:53:29.885Z,0
2022-09-11T00:55:55.979Z,0
2022-09-11T00:58:22.089Z,0
2022-09-11T01:00:48.339Z,0
2022-09-11T01:03:14.264Z,0
2022-09-11T01:05:39.384Z,0
2022-09-11T01:08:05.483Z,0
2022-09-11T01:10:31.584Z,0
2022-09-11T01:12:57.682Z,0
2022-09-11T01:15:23.779Z,0
2022-09-11T01:17:49.854Z,0
2022-09-11T01:20:15.013Z,0
2022-09-11T01:22:41.086Z,0
2022-09-11T01:25:07.154Z,0
2022-09-11T01:27:33.271Z,0
2022-09-11T01:29:59.363Z,0
2022-09-11T01:32:25.458Z,0
2022-09-11T01:34:51.555Z,0
2022-09-11T01:37:17.628Z,0
2022-09-11T01:39:43.740Z,0
2022-09-11T01:42:09.830Z,0
2022-09-11T01:44:35.917Z,0
2022-09-11T01:47:02.013Z,0
2022-09-11T01:49:28.106Z,0
2022-09-11T01:51:53.223Z,0
2022-09-11T01:54:19.373Z,0
2022-09-11T01:56:45.422Z,0
2022-09-11T01:59:11.490Z,0
2022-09-11T02:01:37.594Z,0
2022-09-11T02:04:03.695Z,0
2022-09-11T02:06:29.882Z,0
2022-09-11T02:08:55.867Z,0
2022-09-11T02:11:21.985Z,0
2022-09-11T02:13:48.060Z,0
2022-09-11T02:16:14.203Z,0
2022-09-11T02:18:40.263Z,0
2022-09-11T02:21:06.344Z,0
2022-09-11T02:23:31.505Z,0
2022-09-11T02:25:57.560Z,0
2022-09-11T02:28:23.639Z,0
2022-09-11T02:30:49.752Z,0
2022-09-11T02:33:15.838Z,0
2022-09-11T02:35:41.922Z,0
2022-09-11T02:38:08.029Z,0
2022-09-11T02:40:34.134Z,0
2022-09-11T02:43:00.214Z,0
2022-09-11T02:45:26.310Z,0
2022-09-11T02:47:52.409Z,0
2022-09-11T02:50:18.495Z,0
2022-09-11T02:52:44.593Z,0
2022-09-11T02:55:09.710Z,0
2022-09-11T02:57:35.800Z,0
2022-09-11T03:00:01.892Z,0
2022-09-11T03:02:28.000Z,0
2022-09-11T03:04:54.068Z,0
2022-09-11T03:07:20.171Z,0
2022-09-11T03:09:46.260Z,0
2022-09-11T03:12:12.357Z,0
2022-09-11T03:14:38.442Z,0
2022-09-11T03:17:04.571Z,0
2022-09-11T03:19:30.665Z,0
2022-09-11T03:21:56.740Z,0
2022-09-11T03:24:22.841Z,0
2022-09-11T03:26:47.932Z,0
2022-09-11T03:29:14.038Z,0
2022-09-11T03:31:40.139Z,0
2022-09-11T03:34:06.226Z,0
2022-09-11T03:36:32.321Z,0
2022-09-11T03:38:58.418Z,0
2022-09-11T03:41:24.511Z,0
2022-09-11T03:43:50.601Z,0
2022-09-11T03:46:16.690Z,0
2022-09-11T03:48:42.795Z,0
2022-09-11T03:51:08.892Z,0
2022-09-11T03:53:34.981Z,0
2022-09-11T03:56:01.082Z,0
2022-09-11T03:58:26.184Z,0
2022-09-11T04:00:52.293Z,0
2022-09-11T04:03:18.387Z,0
2022-09-11T04:05:44.482Z,0
2022-09-11T04:08:10.559Z,0
2022-09-11T04:10:36.670Z,0
2022-09-11T04:13:02.754Z,0
2022-09-11T04:15:28.859Z,0
2022-09-11T04:17:54.945Z,0
2022-09-11T04:20:21.040Z,0
2022-09-11T04:22:47.143Z,0
2022-09-11T04:25:13.230Z,0
2022-09-11T04:27:39.323Z,0
2022-09-11T04:30:04.433Z,0
2022-09-11T04:32:30.538Z,0
2022-09-11T04:34:56.620Z,4
2022-09-11T04:37:22.743Z,0
2022-09-11T04:39:48.808Z,4
2022-09-11T04:42:14.919Z,4
2022-09-11T04:44:41.044Z,4
2022-09-11T04:47:07.094Z,4
2022-09-11T04:49:33.207Z,4
2022-09-11T04:51:59.287Z,12
2022-09-11T04:54:25.380Z,20
2022-09-11T04:56:51.484Z,16
2022-09-11T04:59:17.579Z,20
2022-09-11T05:01:42.693Z,36
2022-09-11T05:04:08.777Z,56
2022-09-11T05:06:34.876Z,64
2022-09-11T05:09:00.965Z,68
2022-09-11T05:11:27.052Z,60
2022-09-11T05:13:53.162Z,84
2022-09-11T05:16:19.265Z,192
2022-09-11T05:18:45.347Z,212
2022-09-11T05:21:11.434Z,341
2022-09-11T05:23:37.568Z,265
2022-09-11T05:26:03.619Z,289
2022-09-11T05:28:29.723Z,361
2022-09-11T05:30:55.808Z,425
2022-09-11T05:33:20.923Z,453
2022-09-11T05:35:47.025Z,590
2022-09-11T05:38:13.113Z,783
2022-09-11T05:40:39.251Z,718
2022-09-11T05:43:05.313Z,799
2022-09-11T05:45:31.418Z,855
2022-09-11T05:47:57.483Z,666
2022-09-11T05:50:23.578Z,630
2022-09-11T05:52:49.674Z,682
2022-09-11T05:55:15.778Z,690
2022-09-11T05:57:41.874Z,734
2022-09-11T06:00:08.058Z,971
2022-09-11T06:02:34.063Z,919
2022-09-11T06:04:59.175Z,766
2022-09-11T06:07:25.261Z,835
2022-09-11T06:09:51.349Z,823
2022-09-11T06:12:17.455Z,686
2022-09-11T06:14:43.542Z,594
2022-09-11T06:17:09.663Z,638
2022-09-11T06:19:35.733Z,762
2022-09-11T06:22:01.828Z,670
2022-09-11T06:24:27.925Z,811
2022-09-11T06:26:54.024Z,1032
2022-09-11T06:29:20.129Z,666
2022-09-11T06:31:46.256Z,598
2022-09-11T06:34:12.320Z,815
2022-09-11T06:36:37.473Z,662
2022-09-11T06:39:03.518Z,807
2022-09-11T06:41:29.639Z,1060
2022-09-11T06:43:55.709Z,1815
2022-09-11T06:46:21.833Z,1734
2022-09-11T06:48:47.937Z,1409
2022-09-11T06:51:14.037Z,1799
2022-09-11T06:53:40.122Z,1076
2022-09-11T06:56:06.184Z,2248
2022-09-11T06:58:32.304Z,2180
2022-09-11T07:00:58.373Z,1064
2022-09-11T07:03:24.461Z,746
2022-09-11T07:05:50.561Z,1762
2022-09-11T07:08:15.666Z,2377
2022-09-11T07:10:41.794Z,1823
2022-09-11T07:13:07.885Z,2819
2022-09-11T07:15:33.965Z,3361
2022-09-11T07:18:00.060Z,3003
2022-09-11T07:20:26.140Z,2365
2022-09-11T07:22:52.249Z,3594
2022-09-11T07:25:18.356Z,3931
2022-09-11T07:27:44.683Z,5180
2022-09-11T07:30:10.602Z,4011
2022-09-11T07:32:36.622Z,3337
2022-09-11T07:35:02.721Z,3329
2022-09-11T07:37:28.823Z,4188
2022-09-11T07:39:53.926Z,4738
2022-09-11T07:42:20.034Z,6886
2022-09-11T07:44:46.131Z,7240
2022-09-11T07:47:12.235Z,6862
2022-09-11T07:49:38.347Z,7449
2022-09-11T07:52:04.420Z,8609
2022-09-11T07:54:30.648Z,8798
2022-09-11T07:56:56.606Z,8553
2022-09-11T07:59:22.687Z,8043
2022-09-11T08:01:48.783Z,7782
2022-09-11T08:04:14.942Z,7517
2022-09-11T08:06:41.003Z,7300
2022-09-11T08:09:07.085Z,8485
2022-09-11T08:11:32.178Z,8609
2022-09-11T08:13:58.294Z,6999
2022-09-11T08:16:24.376Z,8212
2022-09-11T08:18:50.501Z,7818
2022-09-11T08:21:16.583Z,7304
2022-09-11T08:23:42.663Z,6208
2022-09-11T08:26:08.759Z,4666
2022-09-11T08:28:34.850Z,4838
2022-09-11T08:31:00.951Z,5706
2022-09-11T08:33:27.082Z,6955
2022-09-11T08:35:53.200Z,7332
2022-09-11T08:38:19.225Z,8047
2022-09-11T08:40:45.320Z,8846
2022-09-11T08:43:10.465Z,10380
2022-09-11T08:45:36.542Z,11970
2022-09-11T08:48:02.630Z,7537
2022-09-11T08:50:28.722Z,6388
2022-09-11T08:52:54.809Z,6746
2022-09-11T08:55:20.963Z,3718
2022-09-11T08:57:46.998Z,2859
2022-09-11T09:00:13.094Z,3329
2022-09-11T09:02:39.186Z,5180
2022-09-11T09:05:05.291Z,5730
2022-09-11T09:07:31.386Z,6754
2022-09-11T09:09:57.488Z,7726
2022-09-11T09:12:23.572Z,8677
2022-09-11T09:14:49.662Z,7344
2022-09-11T09:17:14.786Z,8818
2022-09-11T09:19:40.887Z,10015
2022-09-11T09:22:07.009Z,9846
2022-09-11T09:24:33.057Z,8701
2022-09-11T09:26:59.164Z,9621
2022-09-11T09:29:24.288Z,13147
2022-09-11T09:31:50.372Z,12922
2022-09-11T09:34:16.501Z,13087
2022-09-11T09:36:42.552Z,12508
2022-09-11T09:39:08.651Z,11986
2022-09-11T09:41:34.740Z,10790
2022-09-11T09:44:00.847Z,8786
2022-09-11T09:46:26.975Z,8111
2022-09-11T09:48:53.045Z,7657
2022-09-11T09:51:19.118Z,7786
2022-09-11T09:53:45.224Z,7449
2022-09-11T09:56:11.315Z,9207
2022-09-11T09:58:37.427Z,9858
2022-09-11T10:01:02.517Z,11075
2022-09-11T10:03:28.703Z,10818
2022-09-11T10:05:54.738Z,10360
2022-09-11T10:08:20.810Z,9597
2022-09-11T10:10:46.905Z,9155
2022-09-11T10:13:13.002Z,9473
2022-09-11T10:15:39.088Z,8601
2022-09-11T10:18:05.199Z,9211
2022-09-11T10:20:31.314Z,9224
2022-09-11T10:22:57.397Z,9388
2022-09-11T10:25:23.474Z,10179
2022-09-11T10:27:49.590Z,10637
2022-09-11T10:30:15.669Z,12866
2022-09-11T10:32:40.790Z,13038
2022-09-11T10:35:06.882Z,9312
2022-09-11T10:37:32.985Z,7429
2022-09-11T10:39:59.076Z,8822
2022-09-11T10:42:25.210Z,9207
2022-09-11T10:44:51.269Z,12179
2022-09-11T10:47:17.353Z,13171
2022-09-11T10:49:43.460Z,12055
2022-09-11T10:52:09.545Z,12187
2022-09-11T10:54:35.642Z,12705
2022-09-11T10:57:01.735Z,11677
2022-09-11T10:59:27.827Z,11484
2022-09-11T11:01:53.924Z,12263
2022-09-11T11:04:19.054Z,12830
2022-09-11T11:06:45.142Z,12549
2022-09-11T11:09:11.235Z,11227
2022-09-11T11:11:37.328Z,10581
2022-09-11T11:14:03.437Z,9830
2022-09-11T11:16:29.513Z,9730
2022-09-11T11:18:55.622Z,9529
2022-09-11T11:21:21.700Z,10227
2022-09-11T11:23:47.822Z,10408
2022-09-11T11:26:13.908Z,9444
2022-09-11T11:28:40.009Z,7995
2022-09-11T11:31:06.096Z,6674
2022-09-11T11:33:32.201Z,6232
2022-09-11T11:35:57.300Z,6152
2022-09-11T11:38:23.436Z,6039
2022-09-11T11:40:49.495Z,5730
2022-09-11T11:43:15.583Z,5907
2022-09-11T11:45:41.693Z,6055
2022-09-11T11:48:07.769Z,5943
2022-09-11T11:50:33.869Z,5975
2022-09-11T11:52:59.979Z,6127
2022-09-11T11:55:26.077Z,6605
2022-09-11T11:57:52.179Z,8015
2022-09-11T12:00:18.264Z,8123
2022-09-11T12:02:44.343Z,8196
2022-09-11T12:05:10.441Z,8432
2022-09-11T12:07:35.567Z,8673
2022-09-11T12:10:01.645Z,8830
2022-09-11T12:12:27.754Z,9537
2022-09-11T12:14:53.850Z,11794
2022-09-11T12:17:19.946Z,11798
2022-09-11T12:19:46.049Z,9107
2022-09-11T12:22:12.187Z,8453
2022-09-11T12:24:38.241Z,7806
2022-09-11T12:27:04.326Z,7469
2022-09-11T12:29:30.419Z,7569
2022-09-11T12:31:56.518Z,8075
2022-09-11T12:34:22.646Z,9163
2022-09-11T12:36:48.703Z,8954
2022-09-11T12:39:13.823Z,9854
2022-09-11T12:41:39.922Z,10501
2022-09-11T12:44:06.019Z,10501
2022-09-11T12:46:32.118Z,10356
2022-09-11T12:48:58.199Z,10886
2022-09-11T12:51:24.327Z,10569
2022-09-11T12:53:50.393Z,10569
2022-09-11T12:56:16.476Z,10472
2022-09-11T12:58:42.577Z,10420
2022-09-11T13:01:08.749Z,9324
2022-09-11T13:03:34.771Z,9015
2022-09-11T13:06:00.870Z,8252
2022-09-11T13:08:26.962Z,8529
2022-09-11T13:10:52.066Z,8854
2022-09-11T13:13:18.171Z,9340
2022-09-11T13:15:44.264Z,9605
2022-09-11T13:18:10.353Z,10231
2022-09-11T13:20:36.458Z,11452
2022-09-11T13:23:02.554Z,14167
2022-09-11T13:25:28.642Z,14472
2022-09-11T13:27:54.735Z,11585
2022-09-11T13:30:20.822Z,10577
2022-09-11T13:32:46.954Z,10284
2022-09-11T13:35:13.020Z,10617
2022-09-11T13:37:39.117Z,11324
2022-09-11T13:40:05.238Z,12014
2022-09-11T13:42:30.330Z,12215
2022-09-11T13:44:56.421Z,13922
2022-09-11T13:47:22.528Z,15982
2022-09-11T13:49:48.604Z,15765
2022-09-11T13:52:14.721Z,16645
2022-09-11T13:54:40.791Z,19339
2022-09-11T13:57:06.906Z,21170
2022-09-11T13:59:33.000Z,21973
2022-09-11T14:01:59.099Z,37458
2022-09-11T14:04:25.217Z,27370
2022-09-11T14:06:51.287Z,51368
2022-09-11T14:09:17.380Z,62933
2022-09-11T14:11:43.738Z,59785
2022-09-11T14:14:08.609Z,49569
2022-09-11T14:16:34.698Z,28398
2022-09-11T14:19:00.776Z,55127
2022-09-11T14:21:26.859Z,56829
2022-09-11T14:23:52.945Z,56637
2022-09-11T14:26:19.085Z,37297
2022-09-11T14:28:45.151Z,57247
2022-09-11T14:31:11.253Z,46067
2022-09-11T14:33:37.340Z,56508
2022-09-11T14:36:03.437Z,54838
2022-09-11T14:38:29.528Z,55480
2022-09-11T14:40:55.626Z,52846
2022-09-11T14:43:21.737Z,52750
2022-09-11T14:45:46.835Z,51240
2022-09-11T14:48:12.958Z,47899
2022-09-11T14:50:39.050Z,45682
2022-09-11T14:53:05.127Z,46324
2022-09-11T14:55:31.229Z,43112
2022-09-11T14:57:57.310Z,41570
2022-09-11T15:00:23.413Z,43240
2022-09-11T15:02:49.529Z,42405
2022-09-11T15:05:15.604Z,40638
2022-09-11T15:07:41.699Z,39771
2022-09-11T15:10:07.786Z,36109
2022-09-11T15:12:33.889Z,33442
2022-09-11T15:14:59.992Z,32221
2022-09-11T15:17:25.090Z,31450
2022-09-11T15:19:51.200Z,35562
2022-09-11T15:22:17.383Z,38165
2022-09-11T15:24:43.375Z,36237
2022-09-11T15:27:09.471Z,28045
2022-09-11T15:29:35.572Z,27917
2022-09-11T15:32:01.682Z,34599
2022-09-11T15:34:27.756Z,33282
2022-09-11T15:36:53.848Z,21363
2022-09-11T15:39:19.946Z,30262
2022-09-11T15:41:46.033Z,29234
2022-09-11T15:44:12.136Z,28463
2022-09-11T15:46:38.246Z,28559
2022-09-11T15:49:03.353Z,27563
2022-09-11T15:51:29.458Z,27338
2022-09-11T15:53:55.542Z,26342
2022-09-11T15:56:21.633Z,26792
2022-09-11T15:58:47.799Z,13982
2022-09-11T16:01:13.830Z,8420
2022-09-11T16:03:39.931Z,7489
2022-09-11T16:06:06.024Z,7537
2022-09-11T16:08:32.117Z,7517
2022-09-11T16:10:58.218Z,7501
2022-09-11T16:13:24.309Z,6894
2022-09-11T16:15:50.392Z,6517
2022-09-11T16:18:16.487Z,7372
2022-09-11T16:20:41.602Z,8340
2022-09-11T16:23:07.715Z,7770
2022-09-11T16:25:33.806Z,6015
2022-09-11T16:27:59.882Z,6236
2022-09-11T16:30:25.986Z,5754
2022-09-11T16:32:52.075Z,4272
2022-09-11T16:35:18.207Z,4051
2022-09-11T16:37:44.281Z,3638
2022-09-11T16:40:10.374Z,3288
2022-09-11T16:42:36.465Z,3232
2022-09-11T16:45:02.594Z,3417
2022-09-11T16:47:28.669Z,3280
2022-09-11T16:49:54.744Z,2991
2022-09-11T16:52:19.873Z,2895
2022-09-11T16:54:45.956Z,2798
2022-09-11T16:57:12.081Z,2582
2022-09-11T16:59:38.145Z,2453
2022-09-11T17:02:04.250Z,2288
2022-09-11T17:04:30.343Z,2124
2022-09-11T17:06:56.450Z,2076
2022-09-11T17:09:22.543Z,1995
2022-09-11T17:11:48.672Z,1863
2022-09-11T17:14:14.785Z,1726
2022-09-11T17:16:40.822Z,1598
2022-09-11T17:19:06.906Z,1433
2022-09-11T17:21:33.012Z,1216
2022-09-11T17:23:58.124Z,1048
2022-09-11T17:26:24.218Z,875
2022-09-11T17:28:50.339Z,726
2022-09-11T17:31:16.409Z,610
2022-09-11T17:33:42.560Z,493
2022-09-11T17:36:08.623Z,397
2022-09-11T17:38:33.753Z,309
2022-09-11T17:40:59.813Z,248
2022-09-11T17:43:25.905Z,196
2022-09-11T17:45:52.021Z,160
2022-09-11T17:48:18.119Z,124
2022-09-11T17:50:44.208Z,92
2022-09-11T17:53:10.296Z,64
2022-09-11T17:55:36.373Z,44
2022-09-11T17:58:02.485Z,28
2022-09-11T18:00:28.611Z,20
2022-09-11T18:02:54.686Z,12
2022-09-11T18:05:20.769Z,8
2022-09-11T18:07:46.934Z,4
2022-09-11T18:10:11.979Z,4
2022-09-11T18:12:38.080Z,0
2022-09-11T18:15:04.175Z,4
2022-09-11T18:17:30.272Z,0
2022-09-11T18:19:56.355Z,0
2022-09-11T18:22:22.460Z,0
2022-09-11T18:24:48.583Z,0
2022-09-11T18:27:14.653Z,0
2022-09-11T18:29:40.753Z,0
2022-09-11T18:32:06.845Z,0
2022-09-11T18:34:32.927Z,0
2022-09-11T18:36:59.038Z,0
2022-09-11T18:39:25.110Z,0
2022-09-11T18:41:50.248Z,0
2022-09-11T18:44:16.331Z,0
2022-09-11T18:46:42.479Z,0
2022-09-11T18:49:08.576Z,0
2022-09-11T18:51:34.623Z,0
2022-09-11T18:54:00.717Z,0
2022-09-11T18:56:26.838Z,0
2022-09-11T18:58:52.888Z,0
2022-09-11T19:01:19.045Z,0
2022-09-11T19:03:45.084Z,0
2022-09-11T19:06:11.223Z,0
2022-09-11T19:08:37.276Z,0
2022-09-11T19:11:03.379Z,0
2022-09-11T19:13:28.509Z,0
2022-09-11T19:15:54.575Z,0
2022-09-11T19:18:20.667Z,0
2022-09-11T19:20:46.772Z,0
2022-09-11T19:23:12.842Z,0
2022-09-11T19:25:38.943Z,0
2022-09-11T19:28:05.053Z,0
2022-09-11T19:30:31.145Z,0
2022-09-11T19:32:57.233Z,0
2022-09-11T19:35:23.340Z,0
2022-09-11T19:37:49.427Z,0
2022-09-11T19:40:15.515Z,0
2022-09-11T19:42:41.623Z,0
2022-09-11T19:45:06.719Z,0
2022-09-11T19:47:32.833Z,0
2022-09-11T19:49:58.921Z,0
2022-09-11T19:52:25.021Z,0
2022-09-11T19:54:51.116Z,0
2022-09-11T19:57:17.214Z,0
2022-09-11T19:59:43.336Z,0
2022-09-11T20:02:09.417Z,0
2022-09-11T20:04:35.547Z,0
2022-09-11T20:07:01.697Z,0
2022-09-11T20:09:27.729Z,0
2022-09-11T20:11:53.781Z,0
2022-09-11T20:14:19.875Z,0
2022-09-11T20:16:44.987Z,0
2022-09-11T20:19:11.078Z,0
2022-09-11T20:21:37.185Z,0
2022-09-11T20:24:03.268Z,0
2022-09-11T20:26:29.410Z,0
2022-09-11T20:28:55.467Z,0
2022-09-11T20:31:21.583Z,0
2022-09-11T20:33:47.650Z,0
2022-09-11T20:36:13.746Z,0
2022-09-11T20:38:39.872Z,0
2022-09-11T20:41:05.946Z,0
2022-09-11T20:43:32.021Z,0
2022-09-11T20:45:58.176Z,0
2022-09-11T20:48:23.240Z,0
2022-09-11T20:50:49.337Z,0
2022-09-11T20:53:15.496Z,0
2022-09-11T20:55:41.522Z,0
2022-09-11T20:58:07.614Z,0
2022-09-11T21:00:33.715Z,0
2022-09-11T21:02:59.809Z,0
2022-09-11T21:05:25.912Z,0
2022-09-11T21:07:52.010Z,0
2022-09-11T21:10:18.092Z,0
2022-09-11T21:12:44.183Z,0
2022-09-11T21:15:10.279Z,0
2022-09-11T21:17:36.367Z,0
2022-09-11T21:20:01.477Z,0
2022-09-11T21:22:27.580Z,0
2022-09-11T21:24:53.666Z,0
2022-09-11T21:27:19.773Z,0
2022-09-11T21:29:45.864Z,0
2022-09-11T21:32:11.990Z,0
2022-09-11T21:34:38.095Z,0
2022-09-11T21:37:04.163Z,0
2022-09-11T21:39:30.281Z,0
2022-09-11T21:41:56.347Z,0
2022-09-11T21:44:22.441Z,0
2022-09-11T21:46:48.525Z,0
2022-09-11T21:49:14.635Z,0
2022-09-11T21:51:39.746Z,0
2022-09-11T21:54:05.833Z,0
2022-09-11T21:56:31.937Z,0
2022-09-11T21:58:58.070Z,0
2022-09-11T22:01:24.165Z,0
2022-09-11T22:03:50.238Z,0
2022-09-11T22:06:16.311Z,0
2022-09-11T22:08:42.408Z,0
2022-09-11T22:11:08.511Z,0
2022-09-11T22:13:34.647Z,0
2022-09-11T22:16:00.677Z,0
2022-09-11T22:18:26.789Z,0
2022-09-11T22:20:52.882Z,0
2022-09-11T22:23:17.987Z,0
2022-09-11T22:25:44.103Z,0
2022-09-11T22:28:10.192Z,0
2022-09-11T22:30:36.284Z,0
2022-09-11T22:33:02.372Z,0
2022-09-11T22:35:28.478Z,0
2022-09-11T22:37:54.568Z,0
2022-09-11T22:40:20.666Z,0
2022-09-11T22:42:46.761Z,0
2022-09-11T22:45:12.860Z,0
2022-09-11T22:47:38.965Z,0
2022-09-11T22:50:05.062Z,0
2022-09-11T22:52:31.142Z,0
2022-09-11T22:54:56.264Z,0
2022-09-11T22:57:22.347Z,0
2022-09-11T22:59:48.445Z,0
2022-09-11T23:02:14.560Z,0
2022-09-11T23:04:40.642Z,0
2022-09-11T23:07:06.740Z,0
2022-09-11T23:09:32.838Z,0
2022-09-11T23:11:58.955Z,0
2022-09-11T23:14:25.036Z,0
2022-09-11T23:16:51.117Z,0
2022-09-11T23:21:43.321Z,0
2022-09-11T23:24:09.448Z,0
2022-09-11T23:26:34.576Z,0
2022-09-11T23:29:00.638Z,0
2022-09-11T23:31:26.722Z,0
2022-09-11T23:33:52.822Z,0
2022-09-11T23:36:18.912Z,0
2022-09-11T23:38:45.000Z,0
2022-09-11T23:41:11.106Z,0
2022-09-11T23:43:37.220Z,0
2022-09-11T23:46:03.303Z,0
2022-09-11T23:48:29.410Z,0
2022-09-11T23:50:55.481Z,0
2022-09-11T23:53:21.589Z,0
2022-09-11T23:55:47.680Z,0
2022-09-11T23:58:12.815Z,0
